sensor_id;sensor_type;location;lat;lon;timestamp;noise_LAeq;noise_LA_min;noise_LA_max;noise_LA01;noise_LA95
69668;Laerm;66534;52.370;4.832;2023-07-13T00:00:10;41.28;39.21;45.33;;
69668;Laerm;66534;52.370;4.832;2023-07-13T00:00:42;39.95;38.32;46.77;;
69668;Laerm;66534;52.370;4.832;2023-07-13T00:01:14;40.87;37.38;46.49;;
69668;Laerm;66534;52.370;4.832;2023-07-13T00:01:44;43.26;40.69;47.87;;
69668;Laerm;66534;52.370;4.832;2023-07-13T00:02:16;43.02;40.39;45.71;;
69668;Laerm;66534;52.370;4.832;2023-07-13T00:02:47;41.10;39.03;45.78;;
69668;Laerm;66534;52.370;4.832;2023-07-13T00:03:17;41.02;38.48;44.72;;
69668;Laerm;66534;52.370;4.832;2023-07-13T00:03:48;41.53;38.25;47.84;;
69668;Laerm;66534;52.370;4.832;2023-07-13T00:04:21;41.06;38.37;43.62;;
69668;Laerm;66534;52.370;4.832;2023-07-13T00:04:53;41.89;39.14;45.67;;
69668;Laerm;66534;52.370;4.832;2023-07-13T00:05:24;46.75;39.88;58.23;;
69668;Laerm;66534;52.370;4.832;2023-07-13T00:05:59;45.76;41.68;54.18;;
69668;Laerm;66534;52.370;4.832;2023-07-13T00:06:29;41.71;39.09;45.85;;
69668;Laerm;66534;52.370;4.832;2023-07-13T00:07:03;40.83;38.22;43.96;;
69668;Laerm;66534;52.370;4.832;2023-07-13T00:07:34;42.02;39.62;47.15;;
69668;Laerm;66534;52.370;4.832;2023-07-13T00:08:05;42.65;40.11;46.75;;
69668;Laerm;66534;52.370;4.832;2023-07-13T00:08:35;45.77;41.93;53.07;;
69668;Laerm;66534;52.370;4.832;2023-07-13T00:09:06;41.38;39.35;44.07;;
69668;Laerm;66534;52.370;4.832;2023-07-13T00:09:37;42.56;38.95;44.87;;
69668;Laerm;66534;52.370;4.832;2023-07-13T00:10:08;44.68;41.78;52.58;;
69668;Laerm;66534;52.370;4.832;2023-07-13T00:10:42;44.08;41.46;48.46;;
69668;Laerm;66534;52.370;4.832;2023-07-13T00:11:13;49.05;39.87;58.70;;
69668;Laerm;66534;52.370;4.832;2023-07-13T00:11:45;42.85;39.02;46.03;;
69668;Laerm;66534;52.370;4.832;2023-07-13T00:12:26;40.93;38.69;43.84;;
69668;Laerm;66534;52.370;4.832;2023-07-13T00:12:57;42.62;40.37;45.26;;
69668;Laerm;66534;52.370;4.832;2023-07-13T00:13:29;42.30;40.09;45.78;;
69668;Laerm;66534;52.370;4.832;2023-07-13T00:13:59;42.87;40.74;44.86;;
69668;Laerm;66534;52.370;4.832;2023-07-13T00:14:30;41.95;39.39;46.82;;
69668;Laerm;66534;52.370;4.832;2023-07-13T00:15:05;44.41;40.80;48.96;;
69668;Laerm;66534;52.370;4.832;2023-07-13T00:15:36;45.26;42.98;49.53;;
69668;Laerm;66534;52.370;4.832;2023-07-13T00:16:07;44.55;42.36;47.11;;
69668;Laerm;66534;52.370;4.832;2023-07-13T00:16:39;45.76;43.08;51.28;;
69668;Laerm;66534;52.370;4.832;2023-07-13T00:17:13;44.94;40.72;54.51;;
69668;Laerm;66534;52.370;4.832;2023-07-13T00:17:44;42.71;40.41;46.74;;
69668;Laerm;66534;52.370;4.832;2023-07-13T00:18:14;42.50;39.65;49.66;;
69668;Laerm;66534;52.370;4.832;2023-07-13T00:18:46;42.61;38.73;58.69;;
69668;Laerm;66534;52.370;4.832;2023-07-13T00:19:17;44.01;37.11;55.08;;
69668;Laerm;66534;52.370;4.832;2023-07-13T00:19:47;41.42;38.58;44.56;;
69668;Laerm;66534;52.370;4.832;2023-07-13T00:20:19;43.04;40.32;45.32;;
69668;Laerm;66534;52.370;4.832;2023-07-13T00:20:52;42.72;39.81;46.42;;
69668;Laerm;66534;52.370;4.832;2023-07-13T00:21:22;41.87;39.25;45.10;;
69668;Laerm;66534;52.370;4.832;2023-07-13T00:21:53;41.98;39.46;43.90;;
69668;Laerm;66534;52.370;4.832;2023-07-13T00:22:26;40.87;38.84;44.31;;
69668;Laerm;66534;52.370;4.832;2023-07-13T00:22:56;42.35;38.81;46.88;;
69668;Laerm;66534;52.370;4.832;2023-07-13T00:23:27;45.87;43.51;49.50;;
69668;Laerm;66534;52.370;4.832;2023-07-13T00:23:57;44.67;42.57;46.66;;
69668;Laerm;66534;52.370;4.832;2023-07-13T00:24:28;43.60;41.21;46.61;;
69668;Laerm;66534;52.370;4.832;2023-07-13T00:24:59;46.36;43.44;51.42;;
69668;Laerm;66534;52.370;4.832;2023-07-13T00:25:29;48.33;44.15;64.54;;
69668;Laerm;66534;52.370;4.832;2023-07-13T00:26:02;43.10;40.63;46.70;;
69668;Laerm;66534;52.370;4.832;2023-07-13T00:26:33;42.50;39.57;44.37;;
69668;Laerm;66534;52.370;4.832;2023-07-13T00:27:05;43.91;41.99;46.04;;
69668;Laerm;66534;52.370;4.832;2023-07-13T00:27:36;42.53;40.77;44.97;;
69668;Laerm;66534;52.370;4.832;2023-07-13T00:28:06;45.31;42.21;47.84;;
69668;Laerm;66534;52.370;4.832;2023-07-13T00:28:37;45.65;43.89;48.33;;
69668;Laerm;66534;52.370;4.832;2023-07-13T00:29:08;44.54;41.67;48.43;;
69668;Laerm;66534;52.370;4.832;2023-07-13T00:29:39;44.02;39.93;51.11;;
69668;Laerm;66534;52.370;4.832;2023-07-13T00:30:10;43.27;40.76;49.54;;
69668;Laerm;66534;52.370;4.832;2023-07-13T00:30:41;43.70;41.32;49.28;;
69668;Laerm;66534;52.370;4.832;2023-07-13T00:31:13;43.72;41.25;46.02;;
69668;Laerm;66534;52.370;4.832;2023-07-13T00:31:44;47.64;42.08;59.82;;
69668;Laerm;66534;52.370;4.832;2023-07-13T00:32:15;50.67;46.15;56.86;;
69668;Laerm;66534;52.370;4.832;2023-07-13T00:32:45;44.56;41.17;47.89;;
69668;Laerm;66534;52.370;4.832;2023-07-13T00:33:16;42.45;40.04;45.32;;
69668;Laerm;66534;52.370;4.832;2023-07-13T00:33:46;43.86;41.64;46.29;;
69668;Laerm;66534;52.370;4.832;2023-07-13T00:34:17;43.46;40.39;46.95;;
69668;Laerm;66534;52.370;4.832;2023-07-13T00:34:47;40.65;38.76;42.42;;
69668;Laerm;66534;52.370;4.832;2023-07-13T00:35:17;41.18;39.14;50.92;;
69668;Laerm;66534;52.370;4.832;2023-07-13T00:35:48;41.74;39.11;45.44;;
69668;Laerm;66534;52.370;4.832;2023-07-13T00:36:19;44.08;41.16;46.89;;
69668;Laerm;66534;52.370;4.832;2023-07-13T00:36:50;41.87;39.92;44.14;;
69668;Laerm;66534;52.370;4.832;2023-07-13T00:37:21;43.95;41.85;47.20;;
69668;Laerm;66534;52.370;4.832;2023-07-13T00:37:51;45.08;40.65;52.43;;
69668;Laerm;66534;52.370;4.832;2023-07-13T00:38:22;44.38;39.85;50.64;;
69668;Laerm;66534;52.370;4.832;2023-07-13T00:38:53;41.97;39.32;45.53;;
69668;Laerm;66534;52.370;4.832;2023-07-13T00:39:24;44.19;40.09;48.58;;
69668;Laerm;66534;52.370;4.832;2023-07-13T00:39:54;44.68;41.89;50.65;;
69668;Laerm;66534;52.370;4.832;2023-07-13T00:40:25;44.16;41.37;49.96;;
69668;Laerm;66534;52.370;4.832;2023-07-13T00:40:55;45.25;43.23;47.41;;
69668;Laerm;66534;52.370;4.832;2023-07-13T00:41:26;44.29;42.23;46.47;;
69668;Laerm;66534;52.370;4.832;2023-07-13T00:41:56;43.82;39.98;57.65;;
69668;Laerm;66534;52.370;4.832;2023-07-13T00:42:27;45.02;41.37;49.70;;
69668;Laerm;66534;52.370;4.832;2023-07-13T00:42:59;44.55;42.20;46.80;;
69668;Laerm;66534;52.370;4.832;2023-07-13T00:43:30;44.28;42.12;50.61;;
69668;Laerm;66534;52.370;4.832;2023-07-13T00:44:00;42.72;40.10;46.99;;
69668;Laerm;66534;52.370;4.832;2023-07-13T00:44:31;44.25;41.49;47.23;;
69668;Laerm;66534;52.370;4.832;2023-07-13T00:46:32;43.34;39.60;52.79;;
69668;Laerm;66534;52.370;4.832;2023-07-13T00:47:02;49.28;39.17;55.04;;
69668;Laerm;66534;52.370;4.832;2023-07-13T00:47:33;42.96;39.84;46.63;;
69668;Laerm;66534;52.370;4.832;2023-07-13T00:48:04;40.79;38.68;45.33;;
69668;Laerm;66534;52.370;4.832;2023-07-13T00:48:37;41.95;38.44;48.12;;
69668;Laerm;66534;52.370;4.832;2023-07-13T00:49:11;46.73;41.38;62.05;;
69668;Laerm;66534;52.370;4.832;2023-07-13T00:49:42;44.56;39.79;57.31;;
69668;Laerm;66534;52.370;4.832;2023-07-13T00:50:14;44.79;41.66;48.30;;
69668;Laerm;66534;52.370;4.832;2023-07-13T00:50:49;43.61;40.94;49.32;;
69668;Laerm;66534;52.370;4.832;2023-07-13T00:51:36;41.90;38.20;45.52;;
69668;Laerm;66534;52.370;4.832;2023-07-13T00:52:09;43.41;39.82;47.70;;
69668;Laerm;66534;52.370;4.832;2023-07-13T00:52:43;48.36;39.47;59.49;;
69668;Laerm;66534;52.370;4.832;2023-07-13T00:53:15;42.39;38.79;45.97;;
69668;Laerm;66534;52.370;4.832;2023-07-13T00:53:45;42.14;40.30;44.49;;
69668;Laerm;66534;52.370;4.832;2023-07-13T00:54:22;42.32;39.84;44.69;;
69668;Laerm;66534;52.370;4.832;2023-07-13T00:54:55;43.35;40.83;45.60;;
69668;Laerm;66534;52.370;4.832;2023-07-13T00:55:26;42.66;40.69;45.03;;
69668;Laerm;66534;52.370;4.832;2023-07-13T00:55:57;41.84;39.74;43.91;;
69668;Laerm;66534;52.370;4.832;2023-07-13T00:56:28;41.46;39.72;43.79;;
69668;Laerm;66534;52.370;4.832;2023-07-13T00:57:02;42.47;40.00;44.82;;
69668;Laerm;66534;52.370;4.832;2023-07-13T00:57:33;39.99;37.87;42.02;;
69668;Laerm;66534;52.370;4.832;2023-07-13T00:58:04;39.70;37.73;41.73;;
69668;Laerm;66534;52.370;4.832;2023-07-13T00:58:36;39.32;37.06;42.58;;
69668;Laerm;66534;52.370;4.832;2023-07-13T00:59:12;38.20;35.93;40.60;;
69668;Laerm;66534;52.370;4.832;2023-07-13T00:59:47;38.39;36.46;40.55;;
69668;Laerm;66534;52.370;4.832;2023-07-13T01:00:20;40.82;37.41;43.59;;
69668;Laerm;66534;52.370;4.832;2023-07-13T01:00:52;42.44;39.97;44.76;;
69668;Laerm;66534;52.370;4.832;2023-07-13T01:01:23;41.09;38.76;44.56;;
69668;Laerm;66534;52.370;4.832;2023-07-13T01:01:54;39.99;36.99;42.89;;
69668;Laerm;66534;52.370;4.832;2023-07-13T01:02:25;38.99;36.71;41.39;;
69668;Laerm;66534;52.370;4.832;2023-07-13T01:02:56;39.21;36.85;41.77;;
69668;Laerm;66534;52.370;4.832;2023-07-13T01:03:27;40.31;38.31;41.70;;
69668;Laerm;66534;52.370;4.832;2023-07-13T01:03:58;40.94;38.98;45.94;;
69668;Laerm;66534;52.370;4.832;2023-07-13T01:04:29;40.37;37.17;43.65;;
69668;Laerm;66534;52.370;4.832;2023-07-13T01:04:59;40.22;37.56;45.46;;
69668;Laerm;66534;52.370;4.832;2023-07-13T01:05:33;40.82;37.37;46.70;;
69668;Laerm;66534;52.370;4.832;2023-07-13T01:06:04;40.83;37.97;43.82;;
69668;Laerm;66534;52.370;4.832;2023-07-13T01:06:36;42.54;40.44;47.82;;
69668;Laerm;66534;52.370;4.832;2023-07-13T01:07:07;43.84;40.89;46.75;;
69668;Laerm;66534;52.370;4.832;2023-07-13T01:07:39;42.22;40.12;46.16;;
69668;Laerm;66534;52.370;4.832;2023-07-13T01:08:10;40.63;38.01;42.83;;
69668;Laerm;66534;52.370;4.832;2023-07-13T01:08:41;41.07;37.66;45.05;;
69668;Laerm;66534;52.370;4.832;2023-07-13T01:09:11;40.08;36.77;44.94;;
69668;Laerm;66534;52.370;4.832;2023-07-13T01:09:43;41.64;38.66;48.57;;
69668;Laerm;66534;52.370;4.832;2023-07-13T01:10:15;42.35;39.47;47.95;;
69668;Laerm;66534;52.370;4.832;2023-07-13T01:10:55;44.76;37.53;54.50;;
69668;Laerm;66534;52.370;4.832;2023-07-13T01:11:26;38.83;36.20;47.01;;
69668;Laerm;66534;52.370;4.832;2023-07-13T01:11:57;40.68;38.62;43.06;;
69668;Laerm;66534;52.370;4.832;2023-07-13T01:12:27;43.06;40.07;46.71;;
69668;Laerm;66534;52.370;4.832;2023-07-13T01:12:57;40.11;37.20;43.45;;
69668;Laerm;66534;52.370;4.832;2023-07-13T01:13:29;39.60;37.84;41.42;;
69668;Laerm;66534;52.370;4.832;2023-07-13T01:14:00;41.95;37.99;46.47;;
69668;Laerm;66534;52.370;4.832;2023-07-13T01:14:31;40.43;37.28;43.66;;
69668;Laerm;66534;52.370;4.832;2023-07-13T01:15:03;38.45;36.84;40.93;;
69668;Laerm;66534;52.370;4.832;2023-07-13T01:15:44;41.26;36.83;45.86;;
69668;Laerm;66534;52.370;4.832;2023-07-13T01:16:23;41.51;38.06;44.61;;
69668;Laerm;66534;52.370;4.832;2023-07-13T01:16:54;42.32;38.53;47.09;;
69668;Laerm;66534;52.370;4.832;2023-07-13T01:17:29;42.18;37.53;47.29;;
69668;Laerm;66534;52.370;4.832;2023-07-13T01:18:01;38.66;36.82;48.88;;
69668;Laerm;66534;52.370;4.832;2023-07-13T01:18:32;40.26;37.55;43.82;;
69668;Laerm;66534;52.370;4.832;2023-07-13T01:19:10;41.51;39.02;48.35;;
69668;Laerm;66534;52.370;4.832;2023-07-13T01:19:45;43.18;40.59;46.76;;
69668;Laerm;66534;52.370;4.832;2023-07-13T01:20:15;40.18;37.68;43.83;;
69668;Laerm;66534;52.370;4.832;2023-07-13T01:20:55;40.64;37.74;47.50;;
69668;Laerm;66534;52.370;4.832;2023-07-13T01:21:27;42.32;39.34;45.48;;
69668;Laerm;66534;52.370;4.832;2023-07-13T01:21:57;40.31;37.17;45.23;;
69668;Laerm;66534;52.370;4.832;2023-07-13T01:22:28;38.18;35.95;41.20;;
69668;Laerm;66534;52.370;4.832;2023-07-13T01:22:58;39.30;37.09;41.10;;
69668;Laerm;66534;52.370;4.832;2023-07-13T01:23:31;39.89;37.71;44.02;;
69668;Laerm;66534;52.370;4.832;2023-07-13T01:24:02;38.87;37.15;41.22;;
69668;Laerm;66534;52.370;4.832;2023-07-13T01:24:32;40.96;38.35;46.19;;
69668;Laerm;66534;52.370;4.832;2023-07-13T01:25:03;40.15;38.12;42.46;;
69668;Laerm;66534;52.370;4.832;2023-07-13T01:25:35;40.79;38.76;43.28;;
69668;Laerm;66534;52.370;4.832;2023-07-13T01:26:05;39.59;38.17;43.59;;
69668;Laerm;66534;52.370;4.832;2023-07-13T01:26:36;39.49;37.14;43.24;;
69668;Laerm;66534;52.370;4.832;2023-07-13T01:27:07;39.81;37.77;41.92;;
69668;Laerm;66534;52.370;4.832;2023-07-13T01:27:38;40.16;37.27;43.71;;
69668;Laerm;66534;52.370;4.832;2023-07-13T01:28:11;41.79;39.60;45.53;;
69668;Laerm;66534;52.370;4.832;2023-07-13T01:28:42;40.47;38.75;42.85;;
69668;Laerm;66534;52.370;4.832;2023-07-13T01:29:13;42.96;39.31;51.41;;
69668;Laerm;66534;52.370;4.832;2023-07-13T01:29:44;44.75;41.35;47.66;;
69668;Laerm;66534;52.370;4.832;2023-07-13T01:30:17;42.91;40.69;45.73;;
69668;Laerm;66534;52.370;4.832;2023-07-13T01:30:48;41.02;39.02;43.68;;
69668;Laerm;66534;52.370;4.832;2023-07-13T01:31:18;41.11;38.11;43.69;;
69668;Laerm;66534;52.370;4.832;2023-07-13T01:31:49;41.44;38.39;44.29;;
69668;Laerm;66534;52.370;4.832;2023-07-13T01:32:23;38.70;37.00;41.58;;
69668;Laerm;66534;52.370;4.832;2023-07-13T01:32:54;39.24;37.62;41.42;;
69668;Laerm;66534;52.370;4.832;2023-07-13T01:33:24;39.90;37.34;47.72;;
69668;Laerm;66534;52.370;4.832;2023-07-13T01:33:55;40.69;37.07;43.40;;
69668;Laerm;66534;52.370;4.832;2023-07-13T01:34:27;39.40;37.18;42.09;;
69668;Laerm;66534;52.370;4.832;2023-07-13T01:34:58;38.33;36.57;41.95;;
69668;Laerm;66534;52.370;4.832;2023-07-13T01:35:28;42.47;38.08;63.33;;
69668;Laerm;66534;52.370;4.832;2023-07-13T01:35:59;45.01;37.70;64.69;;
69668;Laerm;66534;52.370;4.832;2023-07-13T01:36:29;39.47;36.66;49.35;;
69668;Laerm;66534;52.370;4.832;2023-07-13T01:37:00;52.17;36.99;72.57;;
69668;Laerm;66534;52.370;4.832;2023-07-13T01:37:30;43.79;37.29;51.91;;
69668;Laerm;66534;52.370;4.832;2023-07-13T01:38:04;40.68;38.19;45.92;;
69668;Laerm;66534;52.370;4.832;2023-07-13T01:38:35;41.74;38.13;45.65;;
69668;Laerm;66534;52.370;4.832;2023-07-13T01:39:06;38.91;36.64;46.23;;
69668;Laerm;66534;52.370;4.832;2023-07-13T01:39:36;39.92;38.01;43.71;;
69668;Laerm;66534;52.370;4.832;2023-07-13T01:40:08;39.68;37.14;43.95;;
69668;Laerm;66534;52.370;4.832;2023-07-13T01:40:39;40.16;38.37;42.32;;
69668;Laerm;66534;52.370;4.832;2023-07-13T01:41:09;40.86;38.99;42.55;;
69668;Laerm;66534;52.370;4.832;2023-07-13T01:41:40;40.95;39.17;42.86;;
69668;Laerm;66534;52.370;4.832;2023-07-13T01:42:10;40.54;37.95;43.96;;
69668;Laerm;66534;52.370;4.832;2023-07-13T01:42:41;39.76;37.95;45.11;;
69668;Laerm;66534;52.370;4.832;2023-07-13T01:43:12;40.40;38.04;45.45;;
69668;Laerm;66534;52.370;4.832;2023-07-13T01:43:43;42.84;38.39;48.67;;
69668;Laerm;66534;52.370;4.832;2023-07-13T01:44:13;43.73;41.27;48.51;;
69668;Laerm;66534;52.370;4.832;2023-07-13T01:44:44;47.68;39.37;62.25;;
69668;Laerm;66534;52.370;4.832;2023-07-13T01:45:14;41.49;39.96;43.65;;
69668;Laerm;66534;52.370;4.832;2023-07-13T01:45:45;41.30;38.77;43.11;;
69668;Laerm;66534;52.370;4.832;2023-07-13T01:46:16;40.01;38.28;42.67;;
69668;Laerm;66534;52.370;4.832;2023-07-13T01:46:46;41.17;38.80;45.38;;
69668;Laerm;66534;52.370;4.832;2023-07-13T01:47:17;42.53;38.31;45.60;;
69668;Laerm;66534;52.370;4.832;2023-07-13T01:47:47;41.48;39.54;43.90;;
69668;Laerm;66534;52.370;4.832;2023-07-13T01:48:17;42.94;39.05;64.36;;
69668;Laerm;66534;52.370;4.832;2023-07-13T01:48:48;43.51;37.55;66.90;;
69668;Laerm;66534;52.370;4.832;2023-07-13T01:49:19;39.58;37.31;43.22;;
69668;Laerm;66534;52.370;4.832;2023-07-13T01:49:49;41.17;38.99;44.88;;
69668;Laerm;66534;52.370;4.832;2023-07-13T01:50:22;40.68;38.00;44.47;;
69668;Laerm;66534;52.370;4.832;2023-07-13T01:50:52;39.57;37.78;41.64;;
69668;Laerm;66534;52.370;4.832;2023-07-13T01:51:23;38.98;37.61;40.72;;
69668;Laerm;66534;52.370;4.832;2023-07-13T01:51:53;40.41;37.18;42.91;;
69668;Laerm;66534;52.370;4.832;2023-07-13T01:52:23;41.44;39.19;44.04;;
69668;Laerm;66534;52.370;4.832;2023-07-13T01:52:54;40.13;38.21;42.74;;
69668;Laerm;66534;52.370;4.832;2023-07-13T01:53:24;42.06;39.78;44.75;;
69668;Laerm;66534;52.370;4.832;2023-07-13T01:53:55;40.39;38.72;42.62;;
69668;Laerm;66534;52.370;4.832;2023-07-13T01:54:25;46.04;39.53;53.92;;
69668;Laerm;66534;52.370;4.832;2023-07-13T01:54:56;40.56;38.52;44.28;;
69668;Laerm;66534;52.370;4.832;2023-07-13T01:55:27;40.66;38.48;43.07;;
69668;Laerm;66534;52.370;4.832;2023-07-13T01:55:58;40.65;38.14;43.38;;
69668;Laerm;66534;52.370;4.832;2023-07-13T01:56:28;42.16;38.44;47.56;;
69668;Laerm;66534;52.370;4.832;2023-07-13T01:56:59;41.13;38.86;56.37;;
69668;Laerm;66534;52.370;4.832;2023-07-13T01:57:29;40.28;37.29;43.23;;
69668;Laerm;66534;52.370;4.832;2023-07-13T01:58:00;42.08;39.53;44.35;;
69668;Laerm;66534;52.370;4.832;2023-07-13T01:58:46;42.79;38.11;49.86;;
69668;Laerm;66534;52.370;4.832;2023-07-13T01:59:17;40.89;39.02;43.33;;
69668;Laerm;66534;52.370;4.832;2023-07-13T01:59:47;40.39;37.81;43.06;;
69668;Laerm;66534;52.370;4.832;2023-07-13T02:00:18;38.90;36.77;44.98;;
69668;Laerm;66534;52.370;4.832;2023-07-13T02:00:50;39.49;35.56;47.78;;
69668;Laerm;66534;52.370;4.832;2023-07-13T02:01:21;40.41;36.93;46.53;;
69668;Laerm;66534;52.370;4.832;2023-07-13T02:01:51;41.09;38.63;44.49;;
69668;Laerm;66534;52.370;4.832;2023-07-13T02:02:22;42.41;39.51;44.46;;
69668;Laerm;66534;52.370;4.832;2023-07-13T02:02:52;41.59;39.17;44.67;;
69668;Laerm;66534;52.370;4.832;2023-07-13T02:03:23;42.24;39.90;45.58;;
69668;Laerm;66534;52.370;4.832;2023-07-13T02:03:54;41.58;39.09;43.89;;
69668;Laerm;66534;52.370;4.832;2023-07-13T02:04:24;42.03;38.71;47.49;;
69668;Laerm;66534;52.370;4.832;2023-07-13T02:04:55;44.26;41.53;49.87;;
69668;Laerm;66534;52.370;4.832;2023-07-13T02:05:25;43.90;41.13;47.64;;
69668;Laerm;66534;52.370;4.832;2023-07-13T02:05:56;42.68;40.77;44.87;;
69668;Laerm;66534;52.370;4.832;2023-07-13T02:06:26;41.21;38.42;43.69;;
69668;Laerm;66534;52.370;4.832;2023-07-13T02:06:57;40.59;39.00;42.63;;
69668;Laerm;66534;52.370;4.832;2023-07-13T02:07:27;41.17;38.45;45.31;;
69668;Laerm;66534;52.370;4.832;2023-07-13T02:07:57;42.77;40.15;44.66;;
69668;Laerm;66534;52.370;4.832;2023-07-13T02:08:29;41.71;40.07;43.25;;
69668;Laerm;66534;52.370;4.832;2023-07-13T02:08:59;42.05;39.93;44.80;;
69668;Laerm;66534;52.370;4.832;2023-07-13T02:09:30;49.77;39.82;58.75;;
69668;Laerm;66534;52.370;4.832;2023-07-13T02:10:02;43.48;41.72;45.25;;
69668;Laerm;66534;52.370;4.832;2023-07-13T02:10:32;42.54;39.01;45.65;;
69668;Laerm;66534;52.370;4.832;2023-07-13T02:11:03;39.94;36.20;44.44;;
69668;Laerm;66534;52.370;4.832;2023-07-13T02:11:34;41.96;39.65;45.01;;
69668;Laerm;66534;52.370;4.832;2023-07-13T02:12:05;43.04;40.18;45.45;;
69668;Laerm;66534;52.370;4.832;2023-07-13T02:12:36;42.76;40.83;45.45;;
69668;Laerm;66534;52.370;4.832;2023-07-13T02:13:07;43.25;40.73;48.37;;
69668;Laerm;66534;52.370;4.832;2023-07-13T02:13:38;43.04;40.75;51.00;;
69668;Laerm;66534;52.370;4.832;2023-07-13T02:14:08;42.04;39.57;43.57;;
69668;Laerm;66534;52.370;4.832;2023-07-13T02:14:39;43.47;38.93;47.59;;
69668;Laerm;66534;52.370;4.832;2023-07-13T02:15:09;44.96;43.04;47.63;;
69668;Laerm;66534;52.370;4.832;2023-07-13T02:15:40;53.53;41.44;68.64;;
69668;Laerm;66534;52.370;4.832;2023-07-13T02:16:17;42.92;39.89;45.59;;
69668;Laerm;66534;52.370;4.832;2023-07-13T02:16:48;42.16;40.14;43.90;;
69668;Laerm;66534;52.370;4.832;2023-07-13T02:17:18;40.96;38.61;44.08;;
69668;Laerm;66534;52.370;4.832;2023-07-13T02:17:49;41.81;38.92;44.26;;
69668;Laerm;66534;52.370;4.832;2023-07-13T02:18:19;41.80;39.56;44.09;;
69668;Laerm;66534;52.370;4.832;2023-07-13T02:18:50;42.81;40.16;49.16;;
69668;Laerm;66534;52.370;4.832;2023-07-13T02:19:22;42.45;39.90;46.61;;
69668;Laerm;66534;52.370;4.832;2023-07-13T02:19:53;41.19;39.31;43.12;;
69668;Laerm;66534;52.370;4.832;2023-07-13T02:20:24;42.69;39.88;46.67;;
69668;Laerm;66534;52.370;4.832;2023-07-13T02:20:55;43.91;41.40;47.12;;
69668;Laerm;66534;52.370;4.832;2023-07-13T02:21:25;42.71;39.72;47.78;;
69668;Laerm;66534;52.370;4.832;2023-07-13T02:21:55;41.59;39.49;44.52;;
69668;Laerm;66534;52.370;4.832;2023-07-13T02:22:26;43.24;40.43;45.37;;
69668;Laerm;66534;52.370;4.832;2023-07-13T02:22:56;42.70;40.09;46.91;;
69668;Laerm;66534;52.370;4.832;2023-07-13T02:23:27;43.63;40.56;46.28;;
69668;Laerm;66534;52.370;4.832;2023-07-13T02:23:57;42.34;38.98;45.54;;
69668;Laerm;66534;52.370;4.832;2023-07-13T02:24:28;40.72;38.58;43.36;;
69668;Laerm;66534;52.370;4.832;2023-07-13T02:24:59;41.74;38.72;45.48;;
69668;Laerm;66534;52.370;4.832;2023-07-13T02:25:29;41.73;39.82;44.04;;
69668;Laerm;66534;52.370;4.832;2023-07-13T02:26:01;42.15;38.97;45.43;;
69668;Laerm;66534;52.370;4.832;2023-07-13T02:26:32;45.02;39.21;49.70;;
69668;Laerm;66534;52.370;4.832;2023-07-13T02:27:03;44.61;41.75;47.67;;
69668;Laerm;66534;52.370;4.832;2023-07-13T02:27:34;42.69;39.85;45.77;;
69668;Laerm;66534;52.370;4.832;2023-07-13T02:28:04;41.03;37.65;44.34;;
69668;Laerm;66534;52.370;4.832;2023-07-13T02:28:35;40.70;37.47;45.93;;
69668;Laerm;66534;52.370;4.832;2023-07-13T02:29:05;42.39;40.45;45.03;;
69668;Laerm;66534;52.370;4.832;2023-07-13T02:29:36;42.73;40.24;45.33;;
69668;Laerm;66534;52.370;4.832;2023-07-13T02:30:10;40.81;37.61;44.95;;
69668;Laerm;66534;52.370;4.832;2023-07-13T02:30:41;41.38;38.98;45.11;;
69668;Laerm;66534;52.370;4.832;2023-07-13T02:31:13;41.35;39.25;46.51;;
69668;Laerm;66534;52.370;4.832;2023-07-13T02:31:43;42.68;39.11;47.35;;
69668;Laerm;66534;52.370;4.832;2023-07-13T02:32:14;44.30;39.33;47.81;;
69668;Laerm;66534;52.370;4.832;2023-07-13T02:32:45;43.83;40.62;47.36;;
69668;Laerm;66534;52.370;4.832;2023-07-13T02:33:15;44.24;41.30;46.75;;
69668;Laerm;66534;52.370;4.832;2023-07-13T02:33:46;45.97;43.91;49.14;;
69668;Laerm;66534;52.370;4.832;2023-07-13T02:34:16;42.71;39.49;47.06;;
69668;Laerm;66534;52.370;4.832;2023-07-13T02:34:47;42.28;39.86;47.71;;
69668;Laerm;66534;52.370;4.832;2023-07-13T02:35:17;43.02;40.34;48.86;;
69668;Laerm;66534;52.370;4.832;2023-07-13T02:35:48;44.12;40.06;47.37;;
69668;Laerm;66534;52.370;4.832;2023-07-13T02:36:18;43.02;40.17;47.64;;
69668;Laerm;66534;52.370;4.832;2023-07-13T02:36:50;43.18;39.88;47.51;;
69668;Laerm;66534;52.370;4.832;2023-07-13T02:37:20;44.80;41.97;47.99;;
69668;Laerm;66534;52.370;4.832;2023-07-13T02:37:51;42.52;40.80;44.82;;
69668;Laerm;66534;52.370;4.832;2023-07-13T02:38:22;42.11;38.60;47.23;;
69668;Laerm;66534;52.370;4.832;2023-07-13T02:38:52;43.83;40.20;49.48;;
69668;Laerm;66534;52.370;4.832;2023-07-13T02:39:23;44.45;41.85;47.85;;
69668;Laerm;66534;52.370;4.832;2023-07-13T02:39:53;42.18;39.58;47.86;;
69668;Laerm;66534;52.370;4.832;2023-07-13T02:40:24;45.35;41.46;48.08;;
69668;Laerm;66534;52.370;4.832;2023-07-13T02:40:55;46.25;43.76;48.57;;
69668;Laerm;66534;52.370;4.832;2023-07-13T02:41:25;44.08;41.39;46.49;;
69668;Laerm;66534;52.370;4.832;2023-07-13T02:41:56;43.54;40.86;48.16;;
69668;Laerm;66534;52.370;4.832;2023-07-13T02:42:26;41.90;39.65;52.36;;
69668;Laerm;66534;52.370;4.832;2023-07-13T02:42:56;44.35;40.28;47.79;;
69668;Laerm;66534;52.370;4.832;2023-07-13T02:43:27;43.40;40.64;47.75;;
69668;Laerm;66534;52.370;4.832;2023-07-13T02:43:58;41.90;39.28;46.21;;
69668;Laerm;66534;52.370;4.832;2023-07-13T02:44:33;40.45;37.66;44.92;;
69668;Laerm;66534;52.370;4.832;2023-07-13T02:45:04;41.06;37.55;47.99;;
69668;Laerm;66534;52.370;4.832;2023-07-13T02:45:35;42.39;39.89;46.99;;
69668;Laerm;66534;52.370;4.832;2023-07-13T02:46:05;42.60;40.50;46.96;;
69668;Laerm;66534;52.370;4.832;2023-07-13T02:46:39;43.47;40.31;52.70;;
69668;Laerm;66534;52.370;4.832;2023-07-13T02:47:10;42.44;40.02;56.76;;
69668;Laerm;66534;52.370;4.832;2023-07-13T02:47:41;42.36;40.23;49.51;;
69668;Laerm;66534;52.370;4.832;2023-07-13T02:48:13;42.04;39.30;46.72;;
69668;Laerm;66534;52.370;4.832;2023-07-13T02:48:44;42.58;39.12;46.67;;
69668;Laerm;66534;52.370;4.832;2023-07-13T02:49:14;43.44;40.21;47.32;;
69668;Laerm;66534;52.370;4.832;2023-07-13T02:49:44;45.28;43.10;49.59;;
69668;Laerm;66534;52.370;4.832;2023-07-13T02:50:15;43.27;40.57;45.76;;
69668;Laerm;66534;52.370;4.832;2023-07-13T02:50:45;42.71;40.76;47.71;;
69668;Laerm;66534;52.370;4.832;2023-07-13T02:51:16;44.40;41.25;49.67;;
69668;Laerm;66534;52.370;4.832;2023-07-13T02:51:46;43.39;40.91;46.49;;
69668;Laerm;66534;52.370;4.832;2023-07-13T02:52:17;44.74;40.71;53.42;;
69668;Laerm;66534;52.370;4.832;2023-07-13T02:52:48;45.60;43.07;48.49;;
69668;Laerm;66534;52.370;4.832;2023-07-13T02:53:18;43.91;41.45;47.25;;
69668;Laerm;66534;52.370;4.832;2023-07-13T02:53:49;48.39;42.59;56.79;;
69668;Laerm;66534;52.370;4.832;2023-07-13T02:54:19;51.34;42.71;58.20;;
69668;Laerm;66534;52.370;4.832;2023-07-13T02:54:49;45.22;42.45;49.00;;
69668;Laerm;66534;52.370;4.832;2023-07-13T02:55:20;44.89;42.04;48.05;;
69668;Laerm;66534;52.370;4.832;2023-07-13T02:55:50;44.91;41.39;56.27;;
69668;Laerm;66534;52.370;4.832;2023-07-13T02:56:24;44.69;42.10;56.69;;
69668;Laerm;66534;52.370;4.832;2023-07-13T02:56:55;45.03;42.20;54.47;;